Barra do Ribeiro, Brazil
Current Conditions -  °F | °C
As of 10:00 AM on Sunday 25 Jan 2015 (Local Time) from SBPA Reporting Station
Clear Clear  
Wind Chill: 79°   Ceiling: Unl
Heat Index: 81°   Visibility: 6mi
Dew Point: 68°   Wind: 9mph
Humidity: 69%   Direction: 330°NNW
Pressure: 29.88"   Gusts: NA
Location:  30.29°S, 51.3°W
Report Text: SBPA 251200Z 33008KT 270V020 CAVOK 26/20 Q1012
Loading
Personal Weather Stations






























Interactive Weather Map New forecast layout! Learn more

10-Day Weather Forecast

Advertisements
Track Severe Weather on mobile